Time;durP1;ratioP1;P1;durP2;ratioP2;P2;SDS_P1;SDS_P2;PMS_P1;PMS_P2;Temp;Humidity;BMP_temperature;BMP_pressure;BME280_temperature;BME280_humidity;BME280_pressure;Samples;Min_cycle;Max_cycle;Signal;HPM_P1;HPM_P2
2023/01/13 00:01:22;;;;;;;1.60;0.53;;;;;;;9.65;84.82;97810.94;5094715;28;20210;-83
2023/01/13 00:03:49;;;;;;;2.37;0.80;;;;;;;9.62;85.21;97807.66;5094763;28;20227;-83
2023/01/13 00:06:18;;;;;;;1.70;0.60;;;;;;;9.57;86.21;97809.78;5094209;28;20210;-83
2023/01/13 00:08:44;;;;;;;3.03;0.87;;;;;;;9.61;85.88;97800.69;5094169;28;20210;-83
2023/01/13 00:11:11;;;;;;;1.20;0.80;;;;;;;9.62;85.22;97797.09;5094122;28;20238;-83
2023/01/13 00:13:39;;;;;;;0.70;0.57;;;;;;;9.62;85.78;97797.94;5094050;28;20234;-83
2023/01/13 00:16:08;;;;;;;1.40;0.60;;;;;;;9.65;85.16;97794.22;5094342;28;20205;-83
2023/01/13 00:18:35;;;;;;;1.10;0.60;;;;;;;9.67;85.21;97789.72;5094253;28;20214;-84
2023/01/13 00:21:03;;;;;;;1.13;0.70;;;;;;;9.63;85.10;97789.09;5093495;28;20209;-83
2023/01/13 00:23:32;;;;;;;2.93;0.97;;;;;;;9.52;85.43;97786.34;5093840;28;20246;-83
2023/01/13 00:25:59;;;;;;;1.70;0.60;;;;;;;9.42;86.06;97787.94;5094249;28;20586;-83
2023/01/13 00:28:26;;;;;;;2.83;0.90;;;;;;;9.39;86.69;97795.22;5093874;28;20211;-84
2023/01/13 00:30:57;;;;;;;2.60;0.70;;;;;;;9.34;87.06;97792.06;5093195;28;20228;-83
2023/01/13 00:33:24;;;;;;;2.77;0.67;;;;;;;9.33;86.91;97785.09;5093962;28;20241;-83
2023/01/13 00:35:56;;;;;;;1.23;0.50;;;;;;;9.35;87.01;97791.09;5093868;28;20232;-83
2023/01/13 00:38:23;;;;;;;4.10;0.70;;;;;;;9.34;87.36;97786.78;5094000;28;20228;-83
2023/01/13 00:40:55;;;;;;;1.53;0.50;;;;;;;9.35;87.60;97789.31;5093092;28;20236;-83
2023/01/13 00:43:24;;;;;;;1.30;0.60;;;;;;;9.41;86.92;97788.91;5093874;28;20229;-84
2023/01/13 00:45:51;;;;;;;4.00;0.80;;;;;;;9.45;86.68;97793.03;5093674;28;20214;-83
2023/01/13 00:48:19;;;;;;;4.00;0.80;;;;;;;9.57;85.35;97778.13;5093420;28;20238;-84
2023/01/13 00:50:46;;;;;;;1.70;0.60;;;;;;;9.63;85.22;97783.81;5093043;28;20246;-84
2023/01/13 00:53:13;;;;;;;1.97;0.60;;;;;;;9.65;85.07;97778.41;5093601;28;20226;-83
2023/01/13 00:55:40;;;;;;;1.73;0.80;;;;;;;9.65;85.03;97778.41;5093683;28;20279;-84
2023/01/13 00:58:06;;;;;;;1.83;0.70;;;;;;;9.60;85.38;97776.09;5093546;28;20214;-84
2023/01/13 01:00:33;;;;;;;0.77;0.60;;;;;;;9.66;84.79;97761.66;5092988;28;20229;-84
2023/01/13 01:02:59;;;;;;;1.73;0.70;;;;;;;9.70;84.82;97771.00;5093203;28;20229;-84
2023/01/13 01:05:27;;;;;;;1.33;0.60;;;;;;;9.71;84.59;97762.13;5093497;28;20215;-84
2023/01/13 01:07:54;;;;;;;1.63;0.60;;;;;;;9.72;84.90;97755.94;5093906;28;20436;-84
2023/01/13 01:10:20;;;;;;;0.90;0.67;;;;;;;9.75;84.83;97760.97;5092494;28;20228;-84
2023/01/13 01:12:46;;;;;;;1.43;0.70;;;;;;;9.76;84.47;97757.38;5092899;28;20327;-84
2023/01/13 01:15:13;;;;;;;0.80;0.50;;;;;;;9.81;83.55;97752.63;5093089;28;20632;-83
2023/01/13 01:17:39;;;;;;;0.73;0.60;;;;;;;9.82;83.88;97752.50;5092755;28;20210;-84
2023/01/13 01:20:07;;;;;;;1.10;0.60;;;;;;;9.79;83.85;97751.91;5092054;28;20214;-83
2023/01/13 01:22:35;;;;;;;3.20;0.87;;;;;;;9.77;84.51;97751.13;5092693;28;20209;-83
2023/01/13 01:25:01;;;;;;;2.67;0.90;;;;;;;9.72;83.97;97761.22;5092903;28;20216;-83
2023/01/13 01:27:28;;;;;;;2.07;0.67;;;;;;;9.71;84.14;97754.22;5092806;28;20216;-84
2023/01/13 01:29:54;;;;;;;1.20;0.70;;;;;;;9.69;84.41;97748.22;5092014;28;20226;-83
2023/01/13 01:32:21;;;;;;;0.87;0.60;;;;;;;9.75;84.35;97755.69;5092902;28;20235;-84
2023/01/13 01:34:47;;;;;;;1.17;0.57;;;;;;;9.75;84.38;97750.41;5093041;28;20209;-83
2023/01/13 01:37:14;;;;;;;1.93;0.60;;;;;;;9.74;83.98;97751.38;5092657;28;20208;-84
2023/01/13 01:39:41;;;;;;;1.40;0.60;;;;;;;9.77;83.78;97749.34;5092290;28;20529;-83
2023/01/13 01:45:00;;;;;;;1.03;0.57;;;;;;;9.81;84.54;97747.34;5092914;28;20208;-84
2023/01/13 01:47:28;;;;;;;2.17;0.63;;;;;;;9.81;85.49;97749.97;5092273;28;20210;-84
2023/01/13 01:49:58;;;;;;;1.90;0.60;;;;;;;9.78;86.85;97756.31;5091425;28;20552;-84
2023/01/13 01:52:28;;;;;;;0.80;0.57;;;;;;;9.72;87.61;97745.38;5091971;28;20579;-83
2023/01/13 01:55:02;;;;;;;1.40;1.17;;;;;;;9.73;87.18;97745.25;5092369;28;20553;-83
2023/01/13 01:57:32;;;;;;;1.37;0.73;;;;;;;9.72;87.79;97745.38;5092302;28;20206;-84
2023/01/13 02:00:00;;;;;;;0.90;0.70;;;;;;;9.70;88.06;97747.25;5090128;28;20205;-83
2023/01/13 02:02:28;;;;;;;0.70;0.60;;;;;;;9.70;87.72;97747.25;5091861;28;20251;-83
2023/01/13 02:04:55;;;;;;;1.17;0.60;;;;;;;9.71;87.43;97736.59;5092341;28;20259;-84
2023/01/13 02:07:25;;;;;;;1.03;0.60;;;;;;;9.73;86.85;97739.97;5092408;28;20216;-83
2023/01/13 02:09:52;;;;;;;1.80;0.70;;;;;;;9.73;86.87;97739.16;5091844;28;20206;-84
2023/01/13 02:12:28;;;;;;;1.07;0.60;;;;;;;9.83;85.54;97737.50;5092523;28;20596;-83
2023/01/13 02:14:56;;;;;;;1.33;0.63;;;;;;;9.78;86.57;97732.56;5092230;28;20274;-84
2023/01/13 02:17:33;;;;;;;1.27;0.60;;;;;;;9.80;87.30;97737.75;5092486;28;20586;-83
2023/01/13 02:20:36;;;;;;;1.20;0.60;;;;;;;9.80;86.58;97727.19;5091028;28;20217;-83
2023/01/13 02:26:48;;;;;;;0.50;0.47;;;;;;;9.79;86.55;97730.78;5092045;28;20217;-83
2023/01/13 02:32:21;;;;;;;1.00;0.60;;;;;;;9.82;86.60;97717.34;5092454;28;20208;-84
2023/01/13 02:34:56;;;;;;;0.47;0.47;;;;;;;9.83;86.24;97722.53;5092281;28;20206;-83
2023/01/13 02:37:28;;;;;;;0.50;0.50;;;;;;;9.83;86.90;97704.06;5092539;28;20210;-84
2023/01/13 02:39:59;;;;;;;1.20;0.70;;;;;;;9.81;86.86;97708.59;5091679;28;20563;-83
2023/01/13 02:45:18;;;;;;;1.77;0.67;;;;;;;9.81;86.54;97691.91;5047533;28;20377;-84
2023/01/13 02:47:49;;;;;;;0.90;0.70;;;;;;;9.78;87.04;97692.97;5091668;28;20668;-84
2023/01/13 02:50:18;;;;;;;0.67;0.60;;;;;;;9.80;87.21;97695.53;5091020;28;20256;-84
2023/01/13 02:52:50;;;;;;;1.33;0.50;;;;;;;9.78;87.25;97695.63;5093746;28;20225;-84
2023/01/13 02:55:21;;;;;;;1.83;0.80;;;;;;;9.81;87.12;97686.63;5096260;28;20211;-84
2023/01/13 02:57:49;;;;;;;3.73;0.77;;;;;;;9.77;87.41;97698.34;5096077;28;20229;-83
2023/01/13 03:00:19;;;;;;;2.13;0.60;;;;;;;9.78;87.21;97698.25;5095171;28;20212;-84
2023/01/13 03:02:47;;;;;;;1.07;0.73;;;;;;;9.75;87.47;97693.22;5095703;28;20223;-83
2023/01/13 03:05:16;;;;;;;1.40;0.73;;;;;;;9.71;87.97;97690.88;5096090;28;20209;-84
2023/01/13 03:08:01;;;;;;;1.27;0.80;;;;;;;9.71;88.28;97688.25;5095675;28;20235;-83
2023/01/13 03:10:46;;;;;;;1.73;0.83;;;;;;;9.70;87.99;97697.13;5094841;28;20237;-83
2023/01/13 03:13:23;;;;;;;2.00;0.70;;;;;;;9.72;87.51;97690.78;5095346;28;20222;-84
2023/01/13 03:15:59;;;;;;;0.60;0.50;;;;;;;9.77;87.56;97686.03;5095297;28;20554;-84
2023/01/13 03:18:40;;;;;;;1.57;0.73;;;;;;;9.88;87.05;97682.59;5095118;28;20668;-84
2023/01/13 03:21:15;;;;;;;2.10;0.67;;;;;;;9.82;87.09;97683.03;5094772;28;20203;-84
2023/01/13 03:23:49;;;;;;;0.97;0.70;;;;;;;9.85;87.20;97686.28;5095147;28;20230;-84
2023/01/13 03:26:19;;;;;;;1.43;0.93;;;;;;;9.79;87.50;97683.28;5095310;28;20557;-84
2023/01/13 03:28:52;;;;;;;1.70;0.90;;;;;;;9.77;87.89;97679.88;5094778;28;20207;-84
2023/01/13 03:31:29;;;;;;;1.10;0.70;;;;;;;9.78;88.19;97676.31;5095173;28;20228;-84
2023/01/13 03:34:00;;;;;;;2.43;0.77;;;;;;;9.75;88.14;97676.53;5095595;28;20227;-84
2023/01/13 03:36:30;;;;;;;1.23;0.80;;;;;;;9.77;88.13;97671.97;5095191;28;20221;-84
2023/01/13 03:39:01;;;;;;;1.47;0.70;;;;;;;9.74;88.16;97669.56;5094267;28;20211;-84
2023/01/13 03:41:35;;;;;;;0.57;0.53;;;;;;;9.77;87.66;97662.28;5094841;28;20238;-84
2023/01/13 03:44:23;;;;;;;1.33;0.90;;;;;;;9.79;87.75;97667.44;5094879;28;20252;-84
2023/01/13 03:47:01;;;;;;;1.27;0.70;;;;;;;9.81;87.45;97652.34;5094884;28;20567;-84
2023/01/13 03:49:35;;;;;;;1.23;0.63;;;;;;;9.83;87.43;97648.63;5094222;28;20583;-84
2023/01/13 03:52:07;;;;;;;2.13;0.60;;;;;;;9.72;87.83;97658.31;5094589;28;20240;-84
2023/01/13 03:54:39;;;;;;;1.90;0.50;;;;;;;9.66;88.36;97658.75;5094686;28;20245;-84
2023/01/13 03:57:10;;;;;;;2.00;0.80;;;;;;;9.63;88.88;97656.31;5094576;28;20231;-84
2023/01/13 03:59:41;;;;;;;2.23;0.90;;;;;;;9.60;89.21;97651.28;5093947;28;20194;-84
2023/01/13 04:02:13;;;;;;;0.67;0.40;;;;;;;9.63;89.00;97645.75;5094423;28;20208;-84
2023/01/13 04:04:44;;;;;;;1.37;0.60;;;;;;;9.59;89.29;97644.28;5093621;28;20241;-84
2023/01/13 04:07:20;;;;;;;1.57;0.60;;;;;;;9.55;89.78;97648.13;5094154;28;20208;-84
2023/01/13 04:09:51;;;;;;;0.47;0.40;;;;;;;9.49;90.42;97643.28;5093613;28;20202;-83
2023/01/13 04:12:24;;;;;;;1.60;0.70;;;;;;;9.45;90.77;97636.53;5094154;28;20254;-84
2023/01/13 04:14:52;;;;;;;1.80;0.70;;;;;;;9.42;91.02;97631.50;5094120;28;20214;-84
2023/01/13 04:17:23;;;;;;;1.27;0.60;;;;;;;9.43;90.68;97620.00;5094262;28;20212;-84
2023/01/13 04:19:49;;;;;;;0.60;0.60;;;;;;;9.47;90.29;97639.91;5093802;28;20218;-84
2023/01/13 04:22:16;;;;;;;2.97;0.67;;;;;;;9.46;90.53;97632.94;5094182;28;20204;-84
2023/01/13 04:24:42;;;;;;;2.80;0.73;;;;;;;9.49;90.60;97640.66;5093118;22;20612;-78
2023/01/13 04:27:09;;;;;;;1.03;0.63;;;;;;;9.61;90.04;97642.41;5073045;28;20559;-78
2023/01/13 04:29:35;;;;;;;2.73;0.80;;;;;;;9.64;89.88;97637.75;5072511;28;20215;-78
2023/01/13 04:32:02;;;;;;;1.70;0.70;;;;;;;9.71;89.07;97635.47;5073114;28;20256;-78
2023/01/13 04:34:30;;;;;;;1.13;0.70;;;;;;;9.73;88.47;97630.94;5073031;28;20248;-78
2023/01/13 04:36:56;;;;;;;2.00;0.73;;;;;;;9.75;88.55;97629.03;5072999;28;20226;-78
2023/01/13 04:39:23;;;;;;;1.70;0.60;;;;;;;9.85;87.81;97630.03;5072132;28;20707;-78
2023/01/13 04:41:58;;;;;;;2.57;0.70;;;;;;;9.84;87.48;97617.81;5072722;28;20566;-78
2023/01/13 04:44:25;;;;;;;0.97;0.63;;;;;;;9.81;87.63;97623.31;5072953;28;20578;-78
2023/01/13 04:46:52;;;;;;;1.23;0.60;;;;;;;9.80;87.67;97613.72;5072770;28;20210;-77
2023/01/13 04:49:19;;;;;;;0.87;0.67;;;;;;;9.79;87.40;97604.13;5072011;28;20208;-78
2023/01/13 04:51:47;;;;;;;1.73;0.60;;;;;;;9.77;87.66;97611.28;5072545;28;20241;-78
2023/01/13 04:54:13;;;;;;;1.13;0.50;;;;;;;9.76;87.56;97609.59;5072485;28;20227;-78
2023/01/13 04:56:40;;;;;;;1.40;0.63;;;;;;;9.73;87.60;97599.28;5072774;28;20586;-78
2023/01/13 04:59:07;;;;;;;3.27;0.60;;;;;;;9.79;87.51;97604.13;5071917;28;20220;-78
2023/01/13 05:01:34;;;;;;;0.93;0.50;;;;;;;9.74;87.43;97607.06;5072343;28;20212;-78
2023/01/13 05:04:00;;;;;;;0.87;0.70;;;;;;;9.76;87.53;97610.44;5072325;28;20237;-78
2023/01/13 05:06:29;;;;;;;3.27;0.60;;;;;;;9.72;87.69;97614.25;5072407;28;20226;-77
2023/01/13 05:08:57;;;;;;;1.90;0.50;;;;;;;9.78;87.26;97615.63;5071579;28;20235;-78
2023/01/13 05:17:00;;;;;;;1.13;0.43;;;;;;;9.68;88.03;97626.00;5071193;28;20225;-77
2023/01/13 05:19:27;;;;;;;2.27;0.60;;;;;;;9.73;87.87;97628.31;5071637;28;20435;-77
2023/01/13 05:27:23;;;;;;;0.43;0.43;;;;;;;9.80;87.40;97632.19;5071985;28;20207;-77
2023/01/13 05:29:49;;;;;;;1.40;0.70;;;;;;;9.80;87.63;97611.88;5071044;28;20215;-77
2023/01/13 05:32:16;;;;;;;1.33;0.63;;;;;;;9.86;86.99;97622.00;5071885;28;20606;-77
2023/01/13 05:34:42;;;;;;;0.60;0.60;;;;;;;9.87;86.73;97610.50;5071842;28;20235;-77
2023/01/13 05:37:09;;;;;;;0.60;0.43;;;;;;;9.94;86.36;97614.38;5071839;28;20239;-77
2023/01/13 05:45:02;;;;;;;0.40;0.40;;;;;;;9.97;85.90;97602.75;5071508;28;20231;-77
2023/01/13 05:47:28;;;;;;;5.30;1.80;;;;;;;9.93;85.75;97598.63;5071628;28;20208;-77
2023/01/13 05:49:55;;;;;;;2.10;0.60;;;;;;;9.83;86.38;97600.25;5070912;28;20211;-77
2023/01/13 05:52:21;;;;;;;0.60;0.40;;;;;;;9.93;85.89;97596.00;5071596;28;20229;-77
2023/01/13 05:54:47;;;;;;;0.77;0.40;;;;;;;9.88;86.19;97595.50;5071527;28;20232;-77
2023/01/13 05:57:14;;;;;;;1.43;0.60;;;;;;;9.81;86.65;97599.53;5071801;28;20207;-77
2023/01/13 05:59:42;;;;;;;0.93;0.40;;;;;;;9.83;86.66;97605.53;5070930;28;20210;-77
2023/01/13 06:02:09;;;;;;;0.80;0.50;;;;;;;9.81;86.53;97607.47;5071547;28;20214;-77
2023/01/13 06:04:35;;;;;;;0.70;0.60;;;;;;;9.75;86.83;97611.41;5071385;28;20229;-77
2023/01/13 06:07:01;;;;;;;0.50;0.50;;;;;;;9.68;87.55;97611.97;5071372;28;20211;-77
2023/01/13 06:09:28;;;;;;;1.70;0.43;;;;;;;9.70;87.62;97615.31;5070652;28;20214;-77
2023/01/13 06:11:54;;;;;;;0.57;0.43;;;;;;;9.72;87.69;97624.00;5071325;28;20232;-77
2023/01/13 06:14:21;;;;;;;0.50;0.50;;;;;;;9.75;87.95;97629.03;5071050;28;20224;-77
2023/01/13 06:16:49;;;;;;;0.60;0.50;;;;;;;9.79;87.70;97627.84;5071256;28;20214;-77
2023/01/13 06:19:15;;;;;;;0.63;0.47;;;;;;;9.86;87.25;97637.81;5070395;28;20618;-77
2023/01/13 06:21:43;;;;;;;0.50;0.50;;;;;;;9.88;87.10;97630.66;5071426;28;20555;-77
2023/01/13 06:24:10;;;;;;;1.03;0.50;;;;;;;9.88;86.80;97628.03;5071059;28;20254;-77
2023/01/13 06:26:40;;;;;;;0.80;0.40;;;;;;;9.93;86.88;97623.25;5070620;28;20210;-77
2023/01/13 06:29:07;;;;;;;2.93;0.57;;;;;;;9.94;86.67;97634.63;5070453;28;20261;-77
2023/01/13 06:31:36;;;;;;;1.40;0.60;;;;;;;9.95;86.94;97634.53;5071008;28;20296;-77
2023/01/13 06:34:09;;;;;;;0.40;0.40;;;;;;;9.93;87.19;97633.81;5070906;28;20238;-77
2023/01/13 06:36:40;;;;;;;0.70;0.60;;;;;;;9.88;87.55;97620.09;5071197;28;20295;-77
2023/01/13 06:39:08;;;;;;;1.23;0.60;;;;;;;9.84;87.64;97623.91;5070275;28;20596;-77
2023/01/13 06:44:20;;;;;;;0.40;0.40;;;;;;;9.89;87.59;97615.66;5070945;28;20331;-79
2023/01/13 06:46:47;;;;;;;0.90;0.57;;;;;;;9.85;87.58;97614.22;5070852;28;20206;-77
2023/01/13 06:49:15;;;;;;;1.40;0.60;;;;;;;9.75;88.14;97621.13;5070358;28;20210;-77
2023/01/13 06:51:41;;;;;;;0.83;0.70;;;;;;;9.69;88.62;97619.78;5070946;28;20231;-77
2023/01/13 06:54:08;;;;;;;0.60;0.50;;;;;;;9.63;89.23;97620.22;5070882;28;20657;-77
2023/01/13 06:56:35;;;;;;;0.53;0.47;;;;;;;9.66;89.42;97619.16;5070825;28;20237;-77
2023/01/13 06:59:01;;;;;;;0.90;0.50;;;;;;;9.59;89.79;97631.94;5069877;28;20204;-77
2023/01/13 07:01:28;;;;;;;0.60;0.60;;;;;;;9.55;90.08;97616.47;5070742;28;20566;-77
2023/01/13 07:03:55;;;;;;;0.50;0.40;;;;;;;9.60;90.18;97619.63;5070799;28;20242;-77
2023/01/13 07:06:22;;;;;;;1.87;0.40;;;;;;;9.59;90.06;97620.53;5070681;28;20209;-77
2023/01/13 07:08:49;;;;;;;0.47;0.40;;;;;;;9.44;91.05;97624.31;5070153;28;20586;-77
2023/01/13 07:11:15;;;;;;;0.67;0.40;;;;;;;9.45;91.43;97620.72;5070559;28;20233;-77
2023/01/13 07:16:26;;;;;;;0.50;0.50;;;;;;;9.54;91.30;97622.69;5070642;28;20211;-77
2023/01/13 07:18:53;;;;;;;1.03;0.43;;;;;;;9.54;91.59;97622.69;5070019;28;20645;-77
2023/01/13 07:21:20;;;;;;;0.77;0.40;;;;;;;9.54;91.48;97620.88;5070465;28;20207;-77
2023/01/13 07:23:48;;;;;;;1.23;0.60;;;;;;;9.60;91.52;97619.63;5070373;28;20247;-77
2023/01/13 07:26:16;;;;;;;0.77;0.50;;;;;;;9.58;91.60;97609.16;5070369;28;20217;-77
2023/01/13 07:28:42;;;;;;;0.73;0.50;;;;;;;9.51;91.69;97615.00;5070486;28;20214;-77
2023/01/13 07:31:15;;;;;;;0.53;0.47;;;;;;;9.48;92.17;97625.78;5069964;28;20209;-77
2023/01/13 07:33:41;;;;;;;0.50;0.50;;;;;;;9.50;91.87;97629.16;5070500;28;20240;-77
2023/01/13 07:36:08;;;;;;;1.40;0.60;;;;;;;9.51;92.22;97633.47;5070504;28;20600;-77
2023/01/13 07:38:35;;;;;;;0.87;0.43;;;;;;;9.57;91.69;97630.38;5070762;28;20211;-77
2023/01/13 07:43:30;;;;;;;1.57;0.50;;;;;;;9.57;91.67;97625.09;5073179;28;20220;-76
2023/01/13 07:43:50;;;;;;;0.40;0.40;;;;;;;9.64;91.22;97621.06;5073645;28;20280;-77
2023/01/13 07:46:17;;;;;;;1.50;0.60;;;;;;;9.61;91.14;97613.38;5073690;28;20212;-81
2023/01/13 07:48:44;;;;;;;0.93;0.50;;;;;;;9.60;91.11;97616.97;5072951;28;20222;-78
2023/01/13 07:51:12;;;;;;;0.40;0.40;;;;;;;9.53;90.96;97634.19;5072910;28;20218;-76
2023/01/13 07:53:38;;;;;;;0.50;0.40;;;;;;;9.62;91.33;97633.53;5073641;28;20587;-76
2023/01/13 07:56:08;;;;;;;0.60;0.40;;;;;;;9.74;90.45;97627.34;5073871;28;20214;-76
2023/01/13 07:58:36;;;;;;;0.37;0.33;;;;;;;9.80;90.32;97630.34;5073614;28;20203;-76
2023/01/13 08:01:07;;;;;;;0.63;0.33;;;;;;;9.85;90.09;97624.78;5073035;28;20563;-76
2023/01/13 08:03:34;;;;;;;0.67;0.30;;;;;;;9.88;89.70;97635.94;5073223;28;20913;-76
2023/01/13 08:06:00;;;;;;;0.37;0.37;;;;;;;9.94;89.69;97626.72;5073424;28;20214;-76
2023/01/13 08:08:27;;;;;;;0.30;0.30;;;;;;;9.96;89.88;97630.91;5073390;28;20696;-77
2023/01/13 08:10:53;;;;;;;0.77;0.30;;;;;;;9.95;89.90;97638.94;5072805;28;20206;-76
2023/01/13 08:13:21;;;;;;;0.90;0.50;;;;;;;9.99;89.33;97638.63;5073011;28;20238;-76
2023/01/13 08:15:49;;;;;;;0.30;0.30;;;;;;;10.04;89.60;97651.50;5073339;28;20214;-76
2023/01/13 08:18:19;;;;;;;0.60;0.43;;;;;;;10.10;89.83;97661.63;5073301;28;20219;-76
2023/01/13 08:20:47;;;;;;;1.73;0.40;;;;;;;10.07;91.78;97669.75;5072875;28;20207;-76
2023/01/13 08:23:13;;;;;;;0.87;0.40;;;;;;;9.99;95.06;97682.66;5073254;28;20245;-76
2023/01/13 08:25:40;;;;;;;0.60;0.50;;;;;;;9.93;96.02;97681.31;5073439;28;20567;-76
2023/01/13 08:28:07;;;;;;;0.40;0.40;;;;;;;9.88;98.52;97682.59;5072934;28;20473;-76
2023/01/13 08:30:35;;;;;;;0.50;0.40;;;;;;;9.81;100.00;97697.19;5070515;28;20208;-76
2023/01/13 08:33:01;;;;;;;1.07;0.40;;;;;;;9.79;100.00;97699.94;5070649;28;20860;-76
2023/01/13 08:35:28;;;;;;;0.97;0.37;;;;;;;9.75;100.00;97693.22;5072440;28;20305;-76
2023/01/13 08:37:54;;;;;;;0.63;0.40;;;;;;;9.75;100.00;97693.22;5072490;28;20212;-76
2023/01/13 08:40:21;;;;;;;0.40;0.40;;;;;;;9.72;100.00;97700.53;5060563;28;20209;-76
2023/01/13 08:42:47;;;;;;;0.40;0.40;;;;;;;9.69;100.00;97695.44;5072021;28;20678;-76
2023/01/13 08:45:14;;;;;;;0.40;0.40;;;;;;;9.67;100.00;97705.28;5072120;28;20211;-76
2023/01/13 08:47:42;;;;;;;0.30;0.30;;;;;;;9.65;100.00;97723.00;5070739;28;20211;-76
2023/01/13 08:50:10;;;;;;;0.63;0.60;;;;;;;9.63;100.00;97724.91;5066918;28;20204;-76
2023/01/13 08:52:36;;;;;;;1.58;0.55;;;;;;;9.66;100.00;97732.63;5071865;28;20454;-76
2023/01/13 08:55:03;;;;;;;1.37;0.40;;;;;;;9.67;100.00;97736.94;5072277;28;20575;-76
2023/01/13 08:57:30;;;;;;;0.50;0.50;;;;;;;9.62;100.00;97749.63;5071249;28;20215;-76
2023/01/13 08:59:56;;;;;;;0.70;0.60;;;;;;;9.64;100.00;97759.13;5071607;28;20206;-76
2023/01/13 09:02:24;;;;;;;0.70;0.43;;;;;;;9.57;100.00;97781.63;5072731;28;20571;-75
2023/01/13 09:04:52;;;;;;;3.83;0.80;;;;;;;9.55;100.00;97795.84;5072502;28;20234;-76
2023/01/13 09:07:20;;;;;;;1.50;0.70;;;;;;;9.29;100.00;97810.00;5072541;28;20215;-75
2023/01/13 09:09:46;;;;;;;1.90;0.50;;;;;;;9.01;100.00;97799.66;5071465;28;20208;-76
2023/01/13 09:14:59;;;;;;;1.47;0.60;;;;;;;8.52;100.00;97790.75;5072314;28;20226;-76
2023/01/13 09:17:26;;;;;;;0.40;0.40;;;;;;;8.42;100.00;97800.19;5072340;28;20210;-76
2023/01/13 09:19:54;;;;;;;1.20;0.50;;;;;;;8.29;100.00;97800.16;5071470;28;20562;-75
2023/01/13 09:22:21;;;;;;;2.23;0.40;;;;;;;8.20;100.00;97799.91;5072186;28;20575;-76
2023/01/13 09:24:47;;;;;;;0.73;0.57;;;;;;;8.13;100.00;97793.31;5071906;28;20839;-75
2023/01/13 09:27:15;;;;;;;0.47;0.40;;;;;;;8.09;100.00;97799.72;5071905;28;20218;-75
2023/01/13 09:29:41;;;;;;;0.70;0.50;;;;;;;8.10;100.00;97809.31;5071439;28;20211;-77
2023/01/13 09:32:12;;;;;;;0.50;0.40;;;;;;;8.14;100.00;97813.44;5070744;28;20235;-76
2023/01/13 09:37:23;;;;;;;1.57;0.60;;;;;;;8.25;100.00;97797.81;5070674;28;20253;-75
2023/01/13 09:39:50;;;;;;;0.60;0.50;;;;;;;8.33;100.00;97795.53;5070157;28;20219;-75
2023/01/13 09:45:13;;;;;;;0.77;0.40;;;;;;;8.42;100.00;97794.91;5069320;28;20776;-76
2023/01/13 09:47:44;;;;;;;0.70;0.50;;;;;;;8.49;100.00;97796.19;5071167;28;20219;-76
2023/01/13 09:50:22;;;;;;;1.13;0.60;;;;;;;8.55;100.00;97796.66;5069372;28;20211;-77
2023/01/13 09:52:50;;;;;;;0.63;0.50;;;;;;;8.62;100.00;97805.00;5070783;28;20268;-76
2023/01/13 09:55:19;;;;;;;1.40;0.43;;;;;;;8.67;100.00;97801.09;5070575;28;20833;-76
2023/01/13 09:57:46;;;;;;;0.77;0.60;;;;;;;8.73;100.00;97805.97;5070144;28;20205;-76
2023/01/13 10:00:22;;;;;;;0.40;0.40;;;;;;;8.81;100.00;97808.09;5069926;28;20208;-76
2023/01/13 10:03:12;;;;;;;0.90;0.57;;;;;;;8.87;100.00;97807.69;5069154;28;20433;-76
2023/01/13 10:05:42;;;;;;;0.83;0.40;;;;;;;8.90;100.00;97803.03;5071449;28;20214;-76
2023/01/13 10:08:13;;;;;;;0.70;0.50;;;;;;;8.92;100.00;97811.69;5071312;28;20204;-76
2023/01/13 10:10:42;;;;;;;1.40;0.73;;;;;;;8.91;100.00;97798.59;5070523;28;20211;-76
2023/01/13 10:13:15;;;;;;;0.80;0.60;;;;;;;8.90;99.25;97803.03;5071126;28;20244;-76
2023/01/13 10:15:49;;;;;;;1.73;1.13;;;;;;;8.89;99.49;97792.59;5071514;28;20208;-76
2023/01/13 10:18:21;;;;;;;1.00;0.90;;;;;;;8.94;97.65;97787.88;5071387;28;20205;-76
2023/01/13 10:20:56;;;;;;;1.37;0.80;;;;;;;8.90;97.75;97797.78;5070672;28;20274;-75
2023/01/13 10:23:37;;;;;;;2.40;0.80;;;;;;;8.96;98.34;97786.81;5085528;22;20441;-80
2023/01/13 10:26:19;;;;;;;2.40;0.83;;;;;;;9.04;97.53;97786.28;5050449;28;20214;-80
2023/01/13 10:28:51;;;;;;;2.80;0.83;;;;;;;9.04;94.86;97817.91;5050661;28;20211;-80
2023/01/13 10:31:20;;;;;;;1.60;0.90;;;;;;;9.03;95.70;97821.50;5051061;28;20204;-80
2023/01/13 10:33:46;;;;;;;2.30;0.90;;;;;;;9.08;95.60;97827.28;5050740;28;20229;-81
2023/01/13 10:36:14;;;;;;;1.57;0.90;;;;;;;9.12;98.19;97831.44;5051184;28;20216;-80
2023/01/13 10:38:44;;;;;;;2.27;0.60;;;;;;;9.12;98.37;97834.06;5050808;28;20562;-80
2023/01/13 10:41:22;;;;;;;3.37;0.93;;;;;;;9.14;98.45;97838.28;5050637;28;20208;-80
2023/01/13 10:43:59;;;;;;;0.93;0.57;;;;;;;9.16;98.40;97846.06;5050895;28;20465;-80
2023/01/13 10:46:27;;;;;;;1.83;0.60;;;;;;;9.20;97.95;97853.69;5051201;28;20251;-81
2023/01/13 10:48:55;;;;;;;2.93;0.70;;;;;;;9.09;97.26;97844.78;5050367;28;20337;-81
2023/01/13 10:51:25;;;;;;;2.60;0.70;;;;;;;9.03;99.32;97861.03;5050799;28;20207;-80
2023/01/13 10:53:56;;;;;;;2.10;0.70;;;;;;;8.87;100.00;97865.66;5050784;28;20233;-79
2023/01/13 10:56:25;;;;;;;1.60;0.60;;;;;;;8.75;100.00;97879.66;5050802;28;20232;-82
2023/01/13 10:58:52;;;;;;;2.53;0.53;;;;;;;8.58;100.00;97869.34;5049957;28;20217;-84
2023/01/13 11:01:25;;;;;;;0.87;0.60;;;;;;;8.43;100.00;97854.53;5050591;28;20210;-85
2023/01/13 11:03:52;;;;;;;0.97;0.60;;;;;;;8.31;100.00;97852.69;5050870;28;20235;-80
2023/01/13 11:06:23;;;;;;;1.90;0.67;;;;;;;8.24;100.00;97843.50;5050731;28;20216;-81
2023/01/13 11:08:54;;;;;;;1.27;0.60;;;;;;;8.21;100.00;97852.44;5050066;28;20220;-81
2023/01/13 11:11:43;;;;;;;1.83;0.60;;;;;;;8.24;100.00;97839.09;5050460;28;20256;-80
2023/01/13 11:14:35;;;;;;;1.97;0.90;;;;;;;8.23;100.00;97839.19;5046420;28;20393;-82
2023/01/13 11:17:09;;;;;;;2.47;0.60;;;;;;;8.27;100.00;97848.59;5054556;28;20311;-82
2023/01/13 11:19:40;;;;;;;2.30;0.83;;;;;;;8.27;100.00;97861.75;5053572;28;20313;-82
2023/01/13 11:22:12;;;;;;;1.20;0.60;;;;;;;8.29;100.00;97851.97;5054593;28;20236;-82
2023/01/13 11:24:44;;;;;;;5.70;0.93;;;;;;;8.29;100.00;97867.75;5054187;28;20235;-82
2023/01/13 11:27:17;;;;;;;3.63;1.00;;;;;;;8.30;100.00;97858.91;5054423;28;20210;-78
2023/01/13 11:29:57;;;;;;;2.37;0.80;;;;;;;8.26;100.00;97863.53;5053499;28;20209;-78
2023/01/13 11:32:24;;;;;;;4.80;0.80;;;;;;;8.29;100.00;97867.75;5054548;28;20577;-75
2023/01/13 11:34:56;;;;;;;2.73;0.83;;;;;;;8.30;100.00;97864.19;5054259;28;20233;-76
2023/01/13 11:37:27;;;;;;;3.60;0.80;;;;;;;8.31;100.00;97863.22;5054266;28;20615;-79
2023/01/13 11:40:00;;;;;;;2.17;0.80;;;;;;;8.30;100.00;97872.94;5053606;28;20208;-78
2023/01/13 11:42:31;;;;;;;3.13;0.90;;;;;;;8.33;100.00;97879.78;5054146;28;20214;-83
2023/01/13 11:45:15;;;;;;;1.60;0.70;;;;;;;8.38;100.00;97861.91;5053268;28;20240;-81
2023/01/13 11:47:45;;;;;;;1.47;0.80;;;;;;;8.42;100.00;97858.13;5051710;28;20281;-82
2023/01/13 11:50:18;;;;;;;4.53;0.87;;;;;;;8.50;99.98;97856.69;5052182;28;20204;-82
2023/01/13 11:53:07;;;;;;;3.10;0.90;;;;;;;8.50;100.00;97861.13;5054005;28;20216;-82
2023/01/13 11:55:46;;;;;;;1.17;0.77;;;;;;;8.60;100.00;97872.72;5051931;28;20516;-81
2023/01/13 11:58:39;;;;;;;2.23;0.80;;;;;;;8.70;100.00;97872.00;5052359;28;20680;-80
2023/01/13 12:01:28;;;;;;;2.30;0.90;;;;;;;8.75;99.60;97850.66;5053099;28;20215;-81
2023/01/13 12:04:18;;;;;;;3.73;0.90;;;;;;;8.74;99.92;97839.25;5051198;28;20625;-81
2023/01/13 12:06:46;;;;;;;2.00;1.07;;;;;;;8.76;99.95;97841.81;5053319;28;20215;-81
2023/01/13 12:09:30;;;;;;;4.30;1.00;;;;;;;8.73;100.00;97834.09;5052910;28;20244;-83
2023/01/13 12:12:21;;;;;;;3.57;1.27;;;;;;;8.72;98.97;97845.56;5050661;28;20216;-83
2023/01/13 12:15:07;;;;;;;3.17;1.00;;;;;;;8.69;100.00;97856.34;5053191;28;20244;-81
2023/01/13 12:17:43;;;;;;;6.20;1.23;;;;;;;8.75;100.00;97861.19;5053146;28;20205;-83
2023/01/13 12:20:22;;;;;;;3.38;1.00;;;;;;;8.84;100.00;97855.31;5049541;28;20633;-84
2023/01/13 12:22:52;;;;;;;4.70;0.90;;;;;;;8.97;98.81;97850.91;5053522;28;20211;-84
2023/01/13 12:25:25;;;;;;;1.47;0.83;;;;;;;9.04;98.48;97863.56;5052637;28;20324;-84
2023/01/13 12:28:00;;;;;;;2.40;0.83;;;;;;;9.09;98.34;97866.75;5050271;28;20215;-84
2023/01/13 12:30:36;;;;;;;2.53;1.00;;;;;;;9.18;97.24;97873.19;5051952;28;20203;-84
2023/01/13 12:33:13;;;;;;;1.93;0.67;;;;;;;9.27;96.27;97881.31;5053373;28;20211;-84
2023/01/13 12:35:50;;;;;;;4.23;1.10;;;;;;;9.27;94.95;97870.78;5050307;28;20225;-84